Friday, November 24, 2017, 8:15 AM EST
Back to Local

KPYM, Plymouth Municipal Airport

Location: Carver, MA, United States Lat: 41.9
Local Time: 8:15 AM EST (13:15 GMT) Lon: -70.733
Time Zone: US/Eastern Elev: 147 ft

Show me the last for .
Show Decoded

2017-11-24 07:52 METAR KPYM 241252Z AUTO 00000KT 10SM CLR M01/M03 A3004 RMK AO2 SLP173 T10061028
                 =
2017-11-24 06:52 METAR KPYM 241152Z AUTO 00000KT 10SM CLR M03/M06 A3002 RMK AO2 SLP168 I1000
                 I6000 T10331056 11017 21039 53008 =
2017-11-24 05:52 METAR KPYM 241052Z AUTO 00000KT 10SM CLR M03/M05 A3001 RMK AO2 SLP165 I1000
                 T10331050 =
2017-11-24 04:52 METAR KPYM 240952Z AUTO 00000KT 10SM CLR M03/M06 A3000 RMK AO2 SLP161 I1000
                 T10281056 =
2017-11-24 03:52 METAR KPYM 240852Z AUTO 00000KT 10SM CLR M03/M05 A3000 RMK AO2 SLP159 T10331050
                 51004 =
2017-11-24 02:52 METAR KPYM 240752Z AUTO 00000KT 10SM CLR M03/M06 A2999 RMK AO2 SLP158 T10331061
                 =
2017-11-24 01:52 METAR KPYM 240652Z AUTO 00000KT 10SM CLR M03/M06 A3000 RMK AO2 SLP161 T10331056
                 =
2017-11-24 00:52 METAR KPYM 240552Z AUTO 00000KT 10SM FEW100 M03/M05 A2999 RMK AO2 SLP156
                 T10281050 11006 21028 50001 =
2017-11-23 23:52 METAR KPYM 240452Z AUTO 00000KT 10SM BKN100 M02/M04 A2999 RMK AO2 SLP157
                 T10221044 400671022 =
2017-11-23 22:52 METAR KPYM 240352Z AUTO 00000KT 10SM CLR M02/M04 A2999 RMK AO2 SLP158 T10171039
                 =
2017-11-23 21:52 METAR KPYM 240252Z AUTO 00000KT 10SM CLR M01/M03 A2998 RMK AO2 SLP155 T10111033
                 53002 =
2017-11-23 20:52 METAR KPYM 240152Z AUTO 00000KT 10SM CLR M01/M03 A2998 RMK AO2 SLP152 T10111033
                 =
2017-11-23 19:52 METAR KPYM 240052Z AUTO 00000KT 10SM CLR M02/M04 A2998 RMK AO2 SLP153 T10171044
                 =
2017-11-23 18:52 METAR KPYM 232352Z AUTO 00000KT 10SM CLR M02/M05 A2998 RMK AO2 SLP153 T10171050
                 10067 21017 50003 =
2017-11-23 17:52 METAR KPYM 232252Z AUTO 00000KT 10SM CLR M01/M05 A2998 RMK AO2 SLP154 T10111050
                 =
2017-11-23 16:52 METAR KPYM 232152Z AUTO 00000KT 10SM CLR 01/M06 A2997 RMK AO2 SLP151 T00111061 =
2017-11-23 15:52 METAR KPYM 232052Z AUTO 23003KT 10SM CLR 05/M07 A2997 RMK AO2 SLP150 T00501067
                 56007 =
2017-11-23 14:52 METAR KPYM 231952Z AUTO 00000KT 10SM CLR 06/M08 A2997 RMK AO2 SLP151 T00611083 =
2017-11-23 13:52 METAR KPYM 231852Z AUTO VRB05KT 10SM CLR 07/M07 A2998 RMK AO2 SLP153 T00671072 =
2017-11-23 12:52 METAR KPYM 231752Z AUTO 24005KT 10SM CLR 06/M08 A2999 RMK AO2 SLP156 T00561078
                 10056 21006 58011 =
2017-11-23 11:52 METAR KPYM 231652Z AUTO 27007KT 10SM CLR 05/M07 A3000 RMK AO2 SLP160 T00501067 =
2017-11-23 10:52 METAR KPYM 231552Z AUTO 31005KT 10SM CLR 04/M07 A3001 RMK AO2 SLP163 T00391072 =
2017-11-23 09:52 METAR KPYM 231452Z AUTO 31008KT 10SM CLR 03/M06 A3002 RMK AO2 SLP167 T00281061
                 55000 =
2017-11-23 08:52 METAR KPYM 231352Z AUTO 32008KT 10SM CLR 02/M06 A3002 RMK AO2 SLP166 T00221056 =

Support USWX by starting your Amazon purchase here.